createdAt,value
2023-04-27T00:00:50.658Z,0.00
2023-04-27T00:01:50.654Z,0.00
2023-04-27T00:02:50.991Z,0.00
2023-04-27T00:03:50.757Z,0.00
2023-04-27T00:04:50.815Z,0.00
2023-04-27T00:05:56.975Z,0.00
2023-04-27T00:06:50.618Z,0.00
2023-04-27T00:07:50.577Z,0.00
2023-04-27T00:08:50.545Z,0.00
2023-04-27T00:09:51.235Z,0.00
2023-04-27T00:10:56.749Z,0.00
2023-04-27T00:11:50.503Z,0.00
2023-04-27T00:12:50.583Z,0.00
2023-04-27T00:13:50.485Z,0.00
2023-04-27T00:14:50.518Z,0.00
2023-04-27T00:15:56.805Z,0.00
2023-04-27T00:16:50.611Z,0.00
2023-04-27T00:17:50.467Z,0.00
2023-04-27T00:18:50.425Z,0.00
2023-04-27T00:19:50.422Z,0.00
2023-04-27T00:20:56.629Z,0.00
2023-04-27T00:21:50.409Z,0.00
2023-04-27T00:22:50.343Z,0.00
2023-04-27T00:23:50.397Z,0.00
2023-04-27T00:24:50.312Z,0.00
2023-04-27T00:25:56.572Z,0.00
2023-04-27T00:26:50.346Z,0.00
2023-04-27T00:27:50.357Z,0.00
2023-04-27T00:28:50.269Z,0.00
2023-04-27T00:29:50.284Z,0.00
2023-04-27T00:30:50.269Z,0.00
2023-04-27T00:31:56.568Z,0.00
2023-04-27T00:32:50.431Z,0.00
2023-04-27T00:33:50.212Z,0.00
2023-04-27T00:34:50.193Z,0.00
2023-04-27T00:35:50.237Z,0.00
2023-04-27T00:36:50.223Z,0.00
2023-04-27T00:37:56.400Z,0.00
2023-04-27T00:38:50.178Z,0.00
2023-04-27T00:39:50.185Z,0.00
2023-04-27T00:40:50.225Z,0.00
2023-04-27T00:41:50.199Z,0.00
2023-04-27T00:42:50.122Z,0.00
2023-04-27T00:43:56.362Z,0.00
2023-04-27T00:44:50.146Z,0.00
2023-04-27T00:45:50.103Z,0.00
2023-04-27T00:46:50.115Z,0.00
2023-04-27T00:47:50.083Z,0.00
2023-04-27T00:48:56.321Z,0.00
2023-04-27T00:49:50.062Z,0.00
2023-04-27T00:50:50.034Z,0.00
2023-04-27T00:51:49.992Z,0.00
2023-04-27T00:52:50.035Z,0.00
2023-04-27T00:53:56.196Z,0.00
2023-04-27T00:54:49.987Z,0.00
2023-04-27T00:55:49.941Z,0.00
2023-04-27T00:56:49.939Z,0.00
2023-04-27T00:57:49.973Z,0.00
2023-04-27T00:58:49.964Z,0.00
2023-04-27T00:59:56.168Z,0.00
2023-04-27T01:00:49.933Z,0.00
2023-04-27T01:01:49.892Z,0.00
2023-04-27T01:02:50.041Z,0.00
2023-04-27T01:03:50.143Z,0.00
2023-04-27T01:04:49.871Z,0.00
2023-04-27T01:05:56.084Z,0.00
2023-04-27T01:06:49.782Z,0.00
2023-04-27T01:07:49.822Z,0.00
2023-04-27T01:08:49.761Z,0.00
2023-04-27T01:09:49.751Z,0.00
2023-04-27T01:10:49.763Z,0.00
2023-04-27T01:11:55.964Z,0.00
2023-04-27T01:12:49.790Z,0.00
2023-04-27T01:13:49.720Z,0.00
2023-04-27T01:14:49.711Z,0.00
2023-04-27T01:15:49.751Z,0.00
2023-04-27T01:16:56.004Z,0.00
2023-04-27T01:17:49.731Z,0.00
2023-04-27T01:18:49.647Z,0.00
2023-04-27T01:19:49.673Z,0.00
2023-04-27T01:20:49.652Z,0.00
2023-04-27T01:21:49.638Z,0.00
2023-04-27T01:22:55.872Z,0.00
2023-04-27T01:23:49.592Z,0.00
2023-04-27T01:24:49.579Z,0.00
2023-04-27T01:25:49.567Z,0.00
2023-04-27T01:26:49.551Z,0.00
2023-04-27T01:27:49.580Z,0.00
2023-04-27T01:28:55.875Z,0.00
2023-04-27T01:29:49.539Z,0.00
2023-04-27T01:30:49.506Z,0.00
2023-04-27T01:31:49.532Z,0.00
2023-04-27T01:32:49.541Z,0.00
2023-04-27T01:33:49.452Z,0.00
2023-04-27T01:34:55.754Z,0.00
2023-04-27T01:35:49.483Z,0.00
2023-04-27T01:36:49.465Z,0.00
2023-04-27T01:37:49.428Z,0.00
2023-04-27T01:38:49.440Z,0.00
2023-04-27T01:39:55.671Z,0.00
2023-04-27T01:40:49.367Z,0.00
2023-04-27T01:41:49.392Z,0.00
2023-04-27T01:42:49.372Z,0.00
2023-04-27T01:43:49.359Z,0.00
2023-04-27T01:44:49.347Z,0.00
2023-04-27T01:45:55.638Z,0.00
2023-04-27T01:46:49.532Z,0.00
2023-04-27T01:47:49.383Z,0.00
2023-04-27T01:48:49.312Z,0.00
2023-04-27T01:49:49.264Z,0.00
2023-04-27T01:50:55.544Z,0.00
2023-04-27T01:51:49.226Z,0.00
2023-04-27T01:52:49.241Z,0.00
2023-04-27T01:53:49.253Z,0.00
2023-04-27T01:54:49.216Z,0.00
2023-04-27T01:55:49.203Z,0.00
2023-04-27T01:56:55.438Z,0.00
2023-04-27T01:57:49.171Z,0.00
2023-04-27T01:58:49.147Z,0.00
2023-04-27T01:59:49.209Z,0.00
2023-04-27T02:00:49.203Z,0.00
2023-04-27T02:01:49.203Z,0.00
2023-04-27T02:02:55.528Z,0.00
2023-04-27T02:03:49.209Z,0.00
2023-04-27T02:04:49.129Z,0.00
2023-04-27T02:05:49.122Z,0.00
2023-04-27T02:06:49.092Z,0.00
2023-04-27T02:07:55.308Z,0.00
2023-04-27T02:08:49.041Z,0.00
2023-04-27T02:09:49.056Z,0.00
2023-04-27T02:10:48.997Z,0.00
2023-04-27T02:11:49.026Z,0.00
2023-04-27T02:12:55.233Z,0.00
2023-04-27T02:13:48.970Z,0.00
2023-04-27T02:14:49.048Z,0.00
2023-04-27T02:15:49.016Z,0.00
2023-04-27T02:16:48.955Z,0.00
2023-04-27T02:17:55.231Z,0.00
2023-04-27T02:18:48.930Z,0.00
2023-04-27T02:19:48.931Z,0.00
2023-04-27T02:20:48.887Z,0.00
2023-04-27T02:21:48.892Z,0.00
2023-04-27T02:22:48.862Z,0.00
2023-04-27T02:23:55.254Z,0.00
2023-04-27T02:24:48.868Z,0.00
2023-04-27T02:25:48.819Z,0.00
2023-04-27T02:26:48.796Z,0.00
2023-04-27T02:27:50.033Z,0.00
2023-04-27T02:28:55.037Z,0.00
2023-04-27T02:29:48.786Z,0.00
2023-04-27T02:30:48.788Z,0.00
2023-04-27T02:31:48.870Z,0.00
2023-04-27T02:32:54.825Z,0.00
2023-04-27T02:33:48.758Z,0.00
2023-04-27T02:34:48.711Z,0.00
2023-04-27T02:35:48.712Z,0.00
2023-04-27T02:36:48.718Z,0.00
2023-04-27T02:37:48.715Z,0.00
2023-04-27T02:38:49.602Z,0.00
2023-04-27T02:39:48.724Z,0.00
2023-04-27T02:40:48.656Z,0.00
2023-04-27T02:41:48.655Z,0.00
2023-04-27T02:42:48.663Z,0.00
2023-04-27T02:43:49.817Z,0.00
2023-04-27T02:44:48.573Z,0.00
2023-04-27T02:45:48.598Z,0.00
2023-04-27T02:46:48.627Z,0.00
2023-04-27T02:47:48.655Z,0.00
2023-04-27T02:48:49.248Z,0.00
2023-04-27T02:49:49.465Z,0.00
2023-04-27T02:50:48.509Z,0.00
2023-04-27T02:51:48.515Z,0.00
2023-04-27T02:52:48.545Z,0.00
2023-04-27T02:53:48.463Z,0.00
2023-04-27T02:54:49.429Z,0.00
2023-04-27T02:55:48.458Z,0.00
2023-04-27T02:56:48.452Z,0.00
2023-04-27T02:57:48.437Z,0.00
2023-04-27T02:58:48.436Z,0.00
2023-04-27T02:59:49.314Z,0.00
2023-04-27T03:00:48.975Z,0.00
2023-04-27T03:01:48.398Z,0.00
2023-04-27T03:02:48.511Z,0.00
2023-04-27T03:03:48.540Z,0.00
2023-04-27T03:04:49.269Z,0.00
2023-04-27T03:05:48.303Z,0.00
2023-04-27T03:06:48.306Z,0.00
2023-04-27T03:07:48.334Z,0.00
2023-04-27T03:08:48.297Z,0.00
2023-04-27T03:09:49.180Z,0.00
2023-04-27T03:10:48.260Z,0.00
2023-04-27T03:11:48.253Z,0.00
2023-04-27T03:12:48.242Z,0.00
2023-04-27T03:13:48.226Z,0.00
2023-04-27T03:14:48.216Z,0.00
2023-04-27T03:15:49.109Z,0.00
2023-04-27T03:16:48.312Z,0.00
2023-04-27T03:17:48.164Z,0.00
2023-04-27T03:18:48.154Z,0.00
2023-04-27T03:19:48.139Z,0.00
2023-04-27T03:20:49.059Z,0.00
2023-04-27T03:21:48.105Z,0.00
2023-04-27T03:22:48.105Z,0.00
2023-04-27T03:23:48.252Z,0.00
2023-04-27T03:24:48.112Z,0.00
2023-04-27T03:25:49.063Z,0.00
2023-04-27T03:26:48.040Z,0.00
2023-04-27T03:27:48.136Z,0.00
2023-04-27T03:28:48.063Z,0.00
2023-04-27T03:29:47.997Z,0.00
2023-04-27T03:30:48.966Z,0.00
2023-04-27T03:31:48.172Z,0.00
2023-04-27T03:32:48.090Z,0.00
2023-04-27T03:33:48.056Z,0.00
2023-04-27T03:34:48.042Z,0.00
2023-04-27T03:35:48.957Z,0.00
2023-04-27T03:36:48.006Z,0.00
2023-04-27T03:37:47.983Z,0.00
2023-04-27T03:38:48.049Z,0.00
2023-04-27T03:39:47.905Z,0.00
2023-04-27T03:40:48.812Z,0.00
2023-04-27T03:41:47.856Z,0.00
2023-04-27T03:42:47.848Z,0.00
2023-04-27T03:43:47.820Z,0.00
2023-04-27T03:44:47.859Z,0.00
2023-04-27T03:45:47.814Z,0.00
2023-04-27T03:46:48.730Z,0.00
2023-04-27T03:47:47.938Z,0.00
2023-04-27T03:48:47.751Z,0.00
2023-04-27T03:49:47.751Z,0.00
2023-04-27T03:50:47.720Z,0.00
2023-04-27T03:51:48.728Z,0.00
2023-04-27T03:52:48.979Z,0.00
2023-04-27T03:53:57.570Z,0.00
2023-04-27T03:55:08.724Z,0.00
2023-04-27T03:55:47.696Z,0.00
2023-04-27T03:56:48.605Z,0.00
2023-04-27T03:57:47.677Z,0.00
2023-04-27T03:58:47.673Z,0.00
2023-04-27T03:59:47.630Z,0.00
2023-04-27T04:00:47.599Z,0.00
2023-04-27T04:01:47.687Z,0.00
2023-04-27T04:02:48.672Z,0.00
2023-04-27T04:03:47.727Z,5.62
2023-04-27T04:04:47.639Z,5.62
2023-04-27T04:05:47.603Z,5.62
2023-04-27T04:06:47.547Z,5.62
2023-04-27T04:07:48.499Z,5.62
2023-04-27T04:08:47.503Z,5.62
2023-04-27T04:09:47.472Z,5.62
2023-04-27T04:10:47.465Z,5.62
2023-04-27T04:11:47.476Z,5.62
2023-04-27T04:12:47.532Z,5.62
2023-04-27T04:13:48.509Z,5.62
2023-04-27T04:14:47.454Z,5.62
2023-04-27T04:15:47.468Z,5.62
2023-04-27T04:16:47.427Z,5.62
2023-04-27T04:17:47.511Z,5.62
2023-04-27T04:18:48.405Z,5.62
2023-04-27T04:19:48.316Z,5.62
2023-04-27T04:20:47.389Z,5.62
2023-04-27T04:21:47.348Z,5.62
2023-04-27T04:22:47.345Z,5.62
2023-04-27T04:23:47.399Z,11.25
2023-04-27T04:24:48.940Z,11.25
2023-04-27T04:25:47.331Z,11.25
2023-04-27T04:26:47.329Z,11.25
2023-04-27T04:27:47.415Z,11.25
2023-04-27T04:28:47.282Z,11.25
2023-04-27T04:29:48.256Z,11.25
2023-04-27T04:30:47.455Z,11.25
2023-04-27T04:31:47.322Z,11.25
2023-04-27T04:32:47.232Z,11.25
2023-04-27T04:33:47.240Z,11.25
2023-04-27T04:34:47.218Z,11.25
2023-04-27T04:35:48.595Z,11.25
2023-04-27T04:36:47.200Z,11.25
2023-04-27T04:37:47.183Z,11.25
2023-04-27T04:38:47.243Z,16.88
2023-04-27T04:39:47.117Z,16.88
2023-04-27T04:40:48.227Z,16.88
2023-04-27T04:41:47.168Z,16.88
2023-04-27T04:42:47.121Z,16.88
2023-04-27T04:43:47.448Z,16.88
2023-04-27T04:44:47.902Z,22.50
2023-04-27T04:45:47.021Z,22.50
2023-04-27T04:46:48.060Z,22.50
2023-04-27T04:47:47.107Z,22.50
2023-04-27T04:48:47.082Z,22.50
2023-04-27T04:49:47.055Z,22.50
2023-04-27T04:50:47.003Z,22.50
2023-04-27T04:51:46.977Z,22.50
2023-04-27T04:52:47.899Z,22.50
2023-04-27T04:53:46.990Z,22.50
2023-04-27T04:54:46.959Z,22.50
2023-04-27T04:55:46.938Z,28.12
2023-04-27T04:56:46.973Z,28.12
2023-04-27T04:57:46.900Z,28.12
2023-04-27T04:58:47.835Z,28.12
2023-04-27T04:59:46.929Z,28.12
2023-04-27T05:00:46.849Z,28.12
2023-04-27T05:01:46.907Z,33.75
2023-04-27T05:02:47.094Z,28.12
2023-04-27T05:03:47.953Z,28.12
2023-04-27T05:04:46.901Z,28.12
2023-04-27T05:05:46.796Z,28.12
2023-04-27T05:06:46.863Z,28.12
2023-04-27T05:07:46.771Z,28.12
2023-04-27T05:08:47.677Z,33.75
2023-04-27T05:09:46.763Z,33.75
2023-04-27T05:10:46.754Z,33.75
2023-04-27T05:11:46.763Z,33.75
2023-04-27T05:12:46.719Z,39.38
2023-04-27T05:13:47.638Z,39.38
2023-04-27T05:14:46.898Z,39.38
2023-04-27T05:15:46.715Z,39.38
2023-04-27T05:16:46.744Z,39.38
2023-04-27T05:17:46.668Z,39.38
2023-04-27T05:18:46.684Z,45.00
2023-04-27T05:19:47.594Z,45.00
2023-04-27T05:20:46.658Z,45.00
2023-04-27T05:21:46.619Z,45.00
2023-04-27T05:23:44.074Z,45.00
2023-04-27T05:24:44.064Z,45.00
2023-04-27T05:25:45.104Z,45.00
2023-04-27T05:26:44.164Z,45.00
2023-04-27T05:27:44.763Z,45.00
2023-04-27T05:28:44.037Z,45.00
2023-04-27T05:29:44.037Z,45.00
2023-04-27T05:30:50.411Z,50.62
2023-04-27T05:31:45.079Z,50.62
2023-04-27T05:32:44.106Z,50.62
2023-04-27T05:33:44.103Z,50.62
2023-04-27T05:34:43.974Z,50.62
2023-04-27T05:35:44.678Z,50.62
2023-04-27T05:36:44.871Z,56.25
2023-04-27T05:37:43.961Z,56.25
2023-04-27T05:38:43.950Z,56.25
2023-04-27T05:39:43.953Z,56.25
2023-04-27T05:40:43.858Z,56.25
2023-04-27T05:41:43.866Z,56.25
2023-04-27T05:42:44.859Z,56.25
2023-04-27T05:43:43.870Z,56.25
2023-04-27T05:44:43.925Z,56.25
2023-04-27T05:45:43.897Z,56.25
2023-04-27T05:46:43.886Z,56.25
2023-04-27T05:47:43.939Z,56.25
2023-04-27T05:48:43.941Z,56.25
2023-04-27T05:49:43.824Z,56.25
2023-04-27T05:50:43.791Z,56.25
2023-04-27T05:51:43.787Z,56.25
2023-04-27T05:52:43.889Z,56.25
2023-04-27T05:53:44.634Z,61.88
2023-04-27T05:54:43.754Z,67.50
2023-04-27T05:55:43.658Z,67.50
2023-04-27T05:56:43.757Z,78.75
2023-04-27T05:57:43.758Z,73.12
2023-04-27T05:58:43.638Z,73.12
2023-04-27T05:59:44.629Z,73.12
2023-04-27T06:00:43.659Z,73.12
2023-04-27T06:01:43.612Z,73.12
2023-04-27T06:02:43.835Z,73.12
2023-04-27T06:03:43.886Z,73.12
2023-04-27T06:04:43.729Z,73.12
2023-04-27T06:05:45.271Z,73.12
2023-04-27T06:06:43.609Z,67.50
2023-04-27T06:07:43.593Z,67.50
2023-04-27T06:08:43.650Z,67.50
2023-04-27T06:09:43.537Z,73.12
2023-04-27T06:10:44.534Z,78.75
2023-04-27T06:11:43.555Z,67.50
2023-04-27T06:12:45.733Z,67.50
2023-04-27T06:13:43.486Z,67.50
2023-04-27T06:14:43.454Z,61.88
2023-04-27T06:15:43.529Z,61.88
2023-04-27T06:16:44.498Z,61.88
2023-04-27T06:17:43.513Z,61.88
2023-04-27T06:18:43.459Z,56.25
2023-04-27T06:19:43.616Z,67.50
2023-04-27T06:20:43.448Z,67.50
2023-04-27T06:21:44.219Z,56.25
2023-04-27T06:22:44.330Z,61.88
2023-04-27T06:23:43.596Z,67.50
2023-04-27T06:24:43.398Z,67.50
2023-04-27T06:25:43.300Z,67.50
2023-04-27T06:26:43.488Z,61.88
2023-04-27T06:27:43.301Z,73.12
2023-04-27T06:28:44.274Z,73.12
2023-04-27T06:29:43.222Z,78.75
2023-04-27T06:30:43.236Z,78.75
2023-04-27T06:31:43.435Z,73.12
2023-04-27T06:32:43.239Z,78.75
2023-04-27T06:33:43.183Z,73.12
2023-04-27T06:34:44.117Z,61.88
2023-04-27T06:35:45.761Z,61.88
2023-04-27T06:36:43.391Z,61.88
2023-04-27T06:37:43.186Z,73.12
2023-04-27T06:38:43.262Z,67.50
2023-04-27T06:39:43.099Z,61.88
2023-04-27T06:40:44.091Z,67.50
2023-04-27T06:41:43.149Z,67.50
2023-04-27T06:42:43.102Z,84.38
2023-04-27T06:43:43.052Z,84.38
2023-04-27T06:44:46.848Z,84.38
2023-04-27T06:45:43.158Z,84.38
2023-04-27T06:46:44.013Z,84.38
2023-04-27T06:47:43.025Z,73.12
2023-04-27T06:48:42.975Z,61.88
2023-04-27T06:49:42.964Z,90.00
2023-04-27T06:50:43.114Z,67.50
2023-04-27T06:51:43.933Z,101.25
2023-04-27T06:52:42.931Z,101.25
2023-04-27T06:53:43.044Z,90.00
2023-04-27T06:54:43.193Z,95.62
2023-04-27T06:55:44.445Z,84.38
2023-04-27T06:56:43.837Z,84.38
2023-04-27T06:57:42.870Z,90.00
2023-04-27T06:58:42.854Z,84.38
2023-04-27T06:59:43.056Z,78.75
2023-04-27T07:00:42.833Z,84.38
2023-04-27T07:01:42.843Z,84.38
2023-04-27T07:02:43.847Z,78.75
2023-04-27T07:03:42.981Z,78.75
2023-04-27T07:04:42.881Z,84.38
2023-04-27T07:05:42.792Z,90.00
2023-04-27T07:06:43.086Z,101.25
2023-04-27T07:07:43.673Z,112.50
2023-04-27T07:08:42.815Z,106.88
2023-04-27T07:09:42.847Z,140.62
2023-04-27T07:10:42.769Z,168.75
2023-04-27T07:11:42.746Z,163.12
2023-04-27T07:12:42.776Z,180.00
2023-04-27T07:13:43.720Z,191.25
2023-04-27T07:14:42.669Z,180.00
2023-04-27T07:15:42.698Z,180.00
2023-04-27T07:16:42.710Z,168.75
2023-04-27T07:17:42.648Z,135.00
2023-04-27T07:18:43.613Z,135.00
2023-04-27T07:19:43.685Z,123.75
2023-04-27T07:20:42.621Z,112.50
2023-04-27T07:21:42.595Z,157.50
2023-04-27T07:22:43.590Z,101.25
2023-04-27T07:23:42.762Z,101.25
2023-04-27T07:24:42.554Z,95.62
2023-04-27T07:25:44.409Z,101.25
2023-04-27T07:26:42.587Z,106.88
2023-04-27T07:27:42.651Z,163.12
2023-04-27T07:28:42.602Z,151.88
2023-04-27T07:29:42.513Z,174.38
2023-04-27T07:30:43.492Z,191.25
2023-04-27T07:31:43.407Z,180.00
2023-04-27T07:32:42.522Z,123.75
2023-04-27T07:33:42.468Z,129.38
2023-04-27T07:34:52.879Z,129.38
2023-04-27T07:35:43.864Z,112.50
2023-04-27T07:36:42.502Z,151.88
2023-04-27T07:37:43.471Z,123.75
2023-04-27T07:38:42.496Z,118.12
2023-04-27T07:39:42.348Z,118.12
2023-04-27T07:40:44.682Z,140.62
2023-04-27T07:41:42.419Z,202.50
2023-04-27T07:42:43.467Z,202.50
2023-04-27T07:43:42.265Z,196.88
2023-04-27T07:44:42.239Z,202.50
2023-04-27T07:45:42.418Z,118.12
2023-04-27T07:46:42.291Z,196.88
2023-04-27T07:47:42.606Z,140.62
2023-04-27T07:48:43.213Z,118.12
2023-04-27T07:49:42.223Z,101.25
2023-04-27T07:50:42.284Z,84.38
2023-04-27T07:51:42.778Z,78.75
2023-04-27T07:52:42.487Z,73.12
2023-04-27T07:53:42.173Z,90.00
2023-04-27T07:54:48.580Z,101.25
2023-04-27T07:55:42.141Z,118.12
2023-04-27T07:56:42.070Z,202.50
2023-04-27T07:57:42.435Z,213.75
2023-04-27T07:58:42.151Z,196.88
2023-04-27T07:59:42.083Z,168.75
2023-04-27T08:00:43.008Z,163.12
2023-04-27T08:01:42.135Z,241.88
2023-04-27T08:02:42.218Z,264.38
2023-04-27T08:03:42.332Z,247.50
2023-04-27T08:04:42.512Z,151.88
2023-04-27T08:05:43.175Z,112.50
2023-04-27T08:06:42.171Z,106.88
2023-04-27T08:07:44.731Z,123.75
2023-04-27T08:08:42.045Z,140.62
2023-04-27T08:09:42.114Z,146.25
2023-04-27T08:10:41.899Z,157.50
2023-04-27T08:11:42.984Z,146.25
2023-04-27T08:12:41.875Z,146.25
2023-04-27T08:13:41.968Z,163.12
2023-04-27T08:14:41.869Z,185.62
2023-04-27T08:15:41.859Z,219.38
2023-04-27T08:16:42.615Z,219.38
2023-04-27T08:17:42.795Z,264.38
2023-04-27T08:18:41.962Z,191.25
2023-04-27T08:19:41.992Z,123.75
2023-04-27T08:20:41.782Z,101.25
2023-04-27T08:21:41.798Z,95.62
2023-04-27T08:22:41.802Z,84.38
2023-04-27T08:23:42.676Z,73.12
2023-04-27T08:24:41.820Z,73.12
2023-04-27T08:25:41.751Z,84.38
2023-04-27T08:26:41.887Z,106.88
2023-04-27T08:27:41.689Z,123.75
2023-04-27T08:28:42.651Z,135.00
2023-04-27T08:29:41.846Z,123.75
2023-04-27T08:30:41.677Z,135.00
2023-04-27T08:31:41.650Z,123.75
2023-04-27T08:32:41.874Z,135.00
2023-04-27T08:33:41.591Z,135.00
2023-04-27T08:34:42.539Z,140.62
2023-04-27T08:35:41.665Z,151.88
2023-04-27T08:36:41.702Z,151.88
2023-04-27T08:37:41.625Z,129.38
2023-04-27T08:38:41.526Z,112.50
2023-04-27T08:39:42.527Z,112.50
2023-04-27T08:40:41.587Z,112.50
2023-04-27T08:41:41.591Z,112.50
2023-04-27T08:42:41.476Z,101.25
2023-04-27T08:43:41.498Z,106.88
2023-04-27T08:44:42.637Z,101.25
2023-04-27T08:45:41.462Z,101.25
2023-04-27T08:46:41.531Z,95.62
2023-04-27T08:47:43.903Z,95.62
2023-04-27T08:48:41.553Z,95.62
2023-04-27T08:49:41.528Z,90.00
2023-04-27T08:50:42.425Z,90.00
2023-04-27T08:51:41.380Z,101.25
2023-04-27T08:52:41.358Z,106.88
2023-04-27T08:53:41.365Z,112.50
2023-04-27T08:54:41.470Z,112.50
2023-04-27T08:55:42.325Z,101.25
2023-04-27T08:56:41.315Z,95.62
2023-04-27T08:57:41.263Z,95.62
2023-04-27T08:58:41.342Z,90.00
2023-04-27T08:59:41.643Z,135.00
2023-04-27T09:00:42.284Z,163.12
2023-04-27T09:01:41.283Z,112.50
2023-04-27T09:02:41.497Z,241.88
2023-04-27T09:03:41.499Z,247.50
2023-04-27T09:04:41.546Z,258.75
2023-04-27T09:05:49.413Z,270.00
2023-04-27T09:06:43.661Z,275.62
2023-04-27T09:07:41.180Z,298.12
2023-04-27T09:08:41.205Z,326.25
2023-04-27T09:09:41.201Z,174.38
2023-04-27T09:10:41.120Z,135.00
2023-04-27T09:11:41.249Z,106.88
2023-04-27T09:12:47.373Z,95.62
2023-04-27T09:13:41.476Z,84.38
2023-04-27T09:14:41.127Z,84.38
2023-04-27T09:15:41.147Z,84.38
2023-04-27T09:16:41.212Z,84.38
2023-04-27T09:17:41.141Z,84.38
2023-04-27T09:18:41.980Z,84.38
2023-04-27T09:19:41.154Z,84.38
2023-04-27T09:20:40.985Z,84.38
2023-04-27T09:21:41.058Z,90.00
2023-04-27T09:22:41.008Z,95.62
2023-04-27T09:23:41.103Z,106.88
2023-04-27T09:24:41.976Z,112.50
2023-04-27T09:25:40.957Z,129.38
2023-04-27T09:26:40.919Z,151.88
2023-04-27T09:27:41.092Z,157.50
2023-04-27T09:28:40.920Z,163.12
2023-04-27T09:29:41.860Z,168.75
2023-04-27T09:30:41.042Z,185.62
2023-04-27T09:31:40.917Z,196.88
2023-04-27T09:32:41.049Z,213.75
2023-04-27T09:33:40.849Z,213.75
2023-04-27T09:34:41.899Z,219.38
2023-04-27T09:35:40.812Z,354.38
2023-04-27T09:36:40.998Z,360.00
2023-04-27T09:37:40.837Z,225.00
2023-04-27T09:38:40.824Z,371.25
2023-04-27T09:39:41.740Z,320.62
2023-04-27T09:40:40.783Z,388.12
2023-04-27T09:41:40.838Z,286.88
2023-04-27T09:42:40.731Z,281.25
2023-04-27T09:43:40.672Z,365.62
2023-04-27T09:44:40.754Z,354.38
2023-04-27T09:45:41.731Z,168.75
2023-04-27T09:46:40.703Z,168.75
2023-04-27T09:47:40.750Z,202.50
2023-04-27T09:48:40.768Z,174.38
2023-04-27T09:49:40.696Z,303.75
2023-04-27T09:50:46.980Z,326.25
2023-04-27T09:51:40.617Z,168.75
2023-04-27T09:52:40.589Z,241.88
2023-04-27T09:53:40.561Z,337.50
2023-04-27T09:54:40.907Z,315.00
2023-04-27T09:55:40.602Z,320.62
2023-04-27T09:56:41.486Z,320.62
2023-04-27T09:57:40.547Z,337.50
2023-04-27T09:58:40.546Z,348.75
2023-04-27T09:59:40.496Z,348.75
2023-04-27T10:00:40.490Z,376.88
2023-04-27T10:01:40.556Z,393.75
2023-04-27T10:02:52.517Z,405.00
2023-04-27T10:03:42.060Z,438.75
2023-04-27T10:04:40.598Z,450.00
2023-04-27T10:05:40.476Z,292.50
2023-04-27T10:06:40.402Z,253.12
2023-04-27T10:07:40.443Z,241.88
2023-04-27T10:08:41.359Z,219.38
2023-04-27T10:09:40.374Z,208.12
2023-04-27T10:10:40.313Z,196.88
2023-04-27T10:11:42.000Z,191.25
2023-04-27T10:12:41.136Z,196.88
2023-04-27T10:13:40.368Z,208.12
2023-04-27T10:14:41.377Z,208.12
2023-04-27T10:15:40.311Z,219.38
2023-04-27T10:16:40.453Z,219.38
2023-04-27T10:17:40.329Z,225.00
2023-04-27T10:18:40.281Z,236.25
2023-04-27T10:19:41.277Z,247.50
2023-04-27T10:20:40.234Z,236.25
2023-04-27T10:21:40.281Z,225.00
2023-04-27T10:22:40.226Z,236.25
2023-04-27T10:23:40.256Z,241.88
2023-04-27T10:24:40.888Z,236.25
2023-04-27T10:25:41.089Z,241.88
2023-04-27T10:26:40.172Z,247.50
2023-04-27T10:27:40.184Z,270.00
2023-04-27T10:28:40.113Z,236.25
2023-04-27T10:29:40.152Z,236.25
2023-04-27T10:30:40.171Z,196.88
2023-04-27T10:31:41.017Z,270.00
2023-04-27T10:32:40.078Z,405.00
2023-04-27T10:33:40.185Z,388.12
2023-04-27T10:34:40.100Z,382.50
2023-04-27T10:35:40.098Z,382.50
2023-04-27T10:36:41.180Z,382.50
2023-04-27T10:37:40.036Z,382.50
2023-04-27T10:38:40.069Z,382.50
2023-04-27T10:39:47.124Z,421.88
2023-04-27T10:40:42.231Z,748.12
2023-04-27T10:41:39.986Z,1085.62
2023-04-27T10:42:40.912Z,1130.62
2023-04-27T10:43:40.034Z,1057.50
2023-04-27T10:44:40.020Z,1018.12
2023-04-27T10:45:39.917Z,990.00
2023-04-27T10:46:39.899Z,973.12
2023-04-27T10:47:39.952Z,939.38
2023-04-27T10:48:40.829Z,905.62
2023-04-27T10:49:39.830Z,180.00
2023-04-27T10:50:40.050Z,123.75
2023-04-27T10:51:39.883Z,123.75
2023-04-27T10:52:39.886Z,146.25
2023-04-27T10:53:39.834Z,180.00
2023-04-27T10:54:40.761Z,219.38
2023-04-27T10:55:39.878Z,230.62
2023-04-27T10:56:39.946Z,230.62
2023-04-27T10:57:39.784Z,270.00
2023-04-27T10:59:40.735Z,309.38
2023-04-27T11:00:39.774Z,483.75
2023-04-27T11:01:39.932Z,596.25
2023-04-27T11:02:39.841Z,331.88
2023-04-27T11:03:40.042Z,281.25
2023-04-27T11:04:39.722Z,270.00
2023-04-27T11:05:40.715Z,225.00
2023-04-27T11:06:39.700Z,213.75
2023-04-27T11:07:39.721Z,219.38
2023-04-27T11:08:39.737Z,219.38
2023-04-27T11:09:39.626Z,219.38
2023-04-27T11:10:40.511Z,219.38
2023-04-27T11:11:39.577Z,225.00
2023-04-27T11:12:39.592Z,241.88
2023-04-27T11:13:39.592Z,253.12
2023-04-27T11:14:39.627Z,275.62
2023-04-27T11:15:39.525Z,281.25
2023-04-27T11:16:40.630Z,315.00
2023-04-27T11:17:40.268Z,298.12
2023-04-27T11:18:39.576Z,275.62
2023-04-27T11:19:39.464Z,247.50
2023-04-27T11:20:39.485Z,253.12
2023-04-27T11:21:40.371Z,337.50
2023-04-27T11:22:39.488Z,196.88
2023-04-27T11:23:40.168Z,230.62
2023-04-27T11:24:39.400Z,174.38
2023-04-27T11:25:39.482Z,146.25
2023-04-27T11:26:39.509Z,123.75
2023-04-27T11:27:40.408Z,112.50
2023-04-27T11:28:40.107Z,106.88
2023-04-27T11:29:40.265Z,106.88
2023-04-27T11:30:39.353Z,95.62
2023-04-27T11:31:39.457Z,95.62
2023-04-27T11:32:41.263Z,101.25
2023-04-27T11:33:39.258Z,106.88
2023-04-27T11:34:39.290Z,118.12
2023-04-27T11:35:39.297Z,140.62
2023-04-27T11:36:39.533Z,163.12
2023-04-27T11:37:39.227Z,180.00
2023-04-27T11:38:40.208Z,196.88
2023-04-27T11:39:39.529Z,213.75
2023-04-27T11:40:39.950Z,225.00
2023-04-27T11:41:39.209Z,225.00
2023-04-27T11:42:39.245Z,219.38
2023-04-27T11:43:40.920Z,208.12
2023-04-27T11:44:39.172Z,208.12
2023-04-27T11:45:39.159Z,219.38
2023-04-27T11:46:40.085Z,225.00
2023-04-27T11:47:39.203Z,208.12
2023-04-27T11:48:39.167Z,213.75
2023-04-27T11:49:40.054Z,213.75
2023-04-27T11:50:39.117Z,219.38
2023-04-27T11:51:39.058Z,219.38
2023-04-27T11:52:40.015Z,236.25
2023-04-27T11:53:39.075Z,264.38
2023-04-27T11:54:40.061Z,292.50
2023-04-27T11:55:39.054Z,309.38
2023-04-27T11:56:39.012Z,326.25
2023-04-27T11:57:38.953Z,365.62
2023-04-27T11:58:39.054Z,511.88
2023-04-27T11:59:38.930Z,348.75
2023-04-27T12:00:40.018Z,275.62
2023-04-27T12:01:38.912Z,247.50
2023-04-27T12:02:39.244Z,236.25
2023-04-27T12:03:39.154Z,213.75
2023-04-27T12:04:39.191Z,185.62
2023-04-27T12:05:39.136Z,163.12
2023-04-27T12:06:39.842Z,151.88
2023-04-27T12:07:38.856Z,140.62
2023-04-27T12:08:38.893Z,135.00
2023-04-27T12:09:38.925Z,129.38
2023-04-27T12:10:38.812Z,123.75
2023-04-27T12:11:39.777Z,123.75
2023-04-27T12:12:38.862Z,123.75
2023-04-27T12:13:38.808Z,118.12
2023-04-27T12:14:38.770Z,112.50
2023-04-27T12:15:38.756Z,112.50
2023-04-27T12:16:38.825Z,112.50
2023-04-27T12:17:39.903Z,118.12
2023-04-27T12:18:38.797Z,129.38
2023-04-27T12:19:38.754Z,140.62
2023-04-27T12:20:38.704Z,151.88
2023-04-27T12:21:38.852Z,157.50
2023-04-27T12:22:39.685Z,157.50
2023-04-27T12:23:38.747Z,168.75
2023-04-27T12:24:38.742Z,180.00
2023-04-27T12:25:38.702Z,208.12
2023-04-27T12:26:38.703Z,247.50
2023-04-27T12:27:39.612Z,298.12
2023-04-27T12:28:38.829Z,450.00
2023-04-27T12:29:38.633Z,444.38
2023-04-27T12:30:38.582Z,545.62
2023-04-27T12:31:38.682Z,343.12
2023-04-27T12:32:39.550Z,388.12
2023-04-27T12:33:38.580Z,354.38
2023-04-27T12:34:38.557Z,292.50
2023-04-27T12:35:38.758Z,270.00
2023-04-27T12:36:38.545Z,253.12
2023-04-27T12:37:39.445Z,225.00
2023-04-27T12:38:39.151Z,213.75
2023-04-27T12:39:39.311Z,213.75
2023-04-27T12:40:38.568Z,219.38
2023-04-27T12:41:38.455Z,236.25
2023-04-27T12:42:38.401Z,236.25
2023-04-27T12:43:39.456Z,219.38
2023-04-27T12:44:38.576Z,219.38
2023-04-27T12:45:38.544Z,241.88
2023-04-27T12:46:38.422Z,253.12
2023-04-27T12:47:58.261Z,286.88
2023-04-27T12:48:39.377Z,270.00
2023-04-27T12:49:39.393Z,264.38
2023-04-27T12:50:38.289Z,258.75
2023-04-27T12:51:38.322Z,270.00
2023-04-27T12:52:39.190Z,281.25